Time;durP1;ratioP1;P1;durP2;ratioP2;P2;SDS_P1;SDS_P2;PMS_P1;PMS_P2;Temp;Humidity;BMP_temperature;BMP_pressure;BME280_temperature;BME280_humidity;BME280_pressure;Samples;Min_cycle;Max_cycle;Signal;HPM_P1;HPM_P2
2022/05/18 00:00:51;;;;;;;22.90;20.50;;;;;23.00;100810.00;;;;2069394;28;20935;-58
2022/05/18 00:01:52;;;;;;;24.30;20.95;;;;;23.00;100815.00;;;;2062020;28;20739;-59
2022/05/18 00:02:52;;;;;;;21.77;19.50;;;;;23.00;100816.00;;;;2062341;28;20213;-58
2022/05/18 00:03:52;;;;;;;23.37;20.63;;;;;23.00;100815.00;;;;2070317;28;20222;-58
2022/05/18 00:04:53;;;;;;;23.00;20.50;;;;;23.00;100820.00;;;;2070052;28;20225;-58
2022/05/18 00:05:53;;;;;;;21.10;18.90;;;;;23.00;100821.00;;;;2069652;28;20214;-57
2022/05/18 00:06:53;;;;;;;21.13;19.00;;;;;23.00;100814.00;;;;2074980;28;20201;-58
2022/05/18 00:07:54;;;;;;;21.70;19.00;;;;;23.00;100823.00;;;;2078523;28;20681;-58
2022/05/18 00:08:54;;;;;;;23.20;20.10;;;;;23.00;100823.00;;;;2079092;28;20233;-59
2022/05/18 00:09:54;;;;;;;22.60;20.20;;;;;23.00;100826.00;;;;2078680;28;20209;-59
2022/05/18 00:10:55;;;;;;;23.07;20.63;;;;;23.00;100818.00;;;;2078495;28;20213;-59
2022/05/18 00:11:55;;;;;;;19.83;17.40;;;;;23.00;100823.00;;;;2070036;28;20207;-58
2022/05/18 00:12:55;;;;;;;20.43;18.17;;;;;23.00;100821.00;;;;2078106;28;20712;-58
2022/05/18 00:13:56;;;;;;;20.43;18.30;;;;;23.00;100818.00;;;;2078673;28;20670;-58
2022/05/18 00:14:56;;;;;;;22.13;19.73;;;;;23.00;100824.00;;;;2070512;28;20303;-58
2022/05/18 00:15:56;;;;;;;20.43;18.27;;;;;23.00;100820.00;;;;2070171;28;20236;-58
2022/05/18 00:16:59;;;;;;;20.93;18.80;;;;;23.00;100822.00;;;;2070754;28;20217;-59
2022/05/18 00:18:00;;;;;;;21.10;18.98;;;;;23.00;100824.00;;;;2070860;28;20210;-58
2022/05/18 00:19:01;;;;;;;19.90;17.90;;;;;23.00;100817.00;;;;2070357;28;20240;-58
2022/05/18 00:20:01;;;;;;;20.50;18.47;;;;;23.00;100822.00;;;;2061965;28;20210;-57
2022/05/18 00:21:03;;;;;;;20.00;18.00;;;;;22.90;100775.00;;;;2069682;28;20452;-57
2022/05/18 00:22:04;;;;;;;19.67;17.67;;;;;23.00;100820.00;;;;2062127;28;20684;-58
2022/05/18 00:23:05;;;;;;;19.45;17.15;;;;;22.90;100815.00;;;;2054479;28;20235;-58
2022/05/18 00:24:05;;;;;;;19.53;17.53;;;;;23.00;100816.00;;;;2070197;28;20210;-58
2022/05/18 00:25:06;;;;;;;18.80;16.03;;;;;23.00;100823.00;;;;2078791;28;20217;-58
2022/05/18 00:26:06;;;;;;;19.40;16.47;;;;;23.00;100826.00;;;;2077832;28;20209;-59
2022/05/18 00:27:07;;;;;;;20.87;17.50;;;;;23.00;100824.00;;;;2078767;28;20218;-58
2022/05/18 00:28:07;;;;;;;21.17;18.90;;;;;23.00;100826.00;;;;2078221;28;20856;-59
2022/05/18 00:29:08;;;;;;;20.33;17.63;;;;;23.00;100825.00;;;;2070090;28;20685;-58
2022/05/18 00:30:09;;;;;;;17.87;16.07;;;;;23.00;100830.00;;;;2078265;28;20232;-58
2022/05/18 00:31:11;;;;;;;19.92;17.92;;;;;23.00;100809.00;;;;2067306;28;20225;-59
2022/05/18 00:32:12;;;;;;;16.98;15.27;;;;;23.00;100827.00;;;;2061976;28;20333;-58
2022/05/18 00:33:12;;;;;;;18.63;16.20;;;;;23.00;100825.00;;;;2061890;28;20260;-59
2022/05/18 00:34:13;;;;;;;18.60;16.03;;;;;23.00;100827.00;;;;2061729;28;20219;-58
2022/05/18 00:35:13;;;;;;;17.67;14.77;;;;;23.00;100825.00;;;;2066371;28;20373;-59
2022/05/18 00:36:13;;;;;;;19.20;16.90;;;;;22.90;100828.00;;;;2070071;28;20299;-58
2022/05/18 00:37:14;;;;;;;16.20;14.60;;;;;23.00;100826.00;;;;2069548;28;20709;-58
2022/05/18 00:38:14;;;;;;;17.67;15.77;;;;;22.90;100830.00;;;;2067853;28;20630;-59
2022/05/18 00:39:15;;;;;;;16.77;15.07;;;;;23.00;100827.00;;;;2070085;28;20649;-58
2022/05/18 00:40:16;;;;;;;16.70;15.00;;;;;22.90;100825.00;;;;2061915;28;20211;-58
2022/05/18 00:41:19;;;;;;;17.52;15.63;;;;;22.90;100832.00;;;;2061345;28;20276;-58
2022/05/18 00:42:21;;;;;;;16.77;15.07;;;;;22.90;100831.00;;;;2069826;28;20272;-58
2022/05/18 00:43:31;;;;;;;16.95;15.25;;;;;23.00;100833.00;;;;2070024;28;20221;-58
2022/05/18 00:44:31;;;;;;;17.05;15.25;;;;;22.90;100826.00;;;;2070018;28;20710;-58
2022/05/18 00:45:31;;;;;;;17.47;15.70;;;;;22.90;100831.00;;;;2069812;28;20241;-58
2022/05/18 00:46:32;;;;;;;15.33;13.73;;;;;22.90;100839.00;;;;2069966;28;20214;-59
2022/05/18 00:47:32;;;;;;;16.10;14.40;;;;;22.90;100832.00;;;;2061492;28;20368;-58
2022/05/18 00:48:33;;;;;;;15.03;13.53;;;;;22.90;100822.00;;;;2069834;28;20218;-58
2022/05/18 00:49:33;;;;;;;15.20;13.70;;;;;22.90;100825.00;;;;2069414;28;20699;-58
2022/05/18 00:50:34;;;;;;;14.73;13.33;;;;;22.90;100823.00;;;;2069619;28;20210;-58
2022/05/18 00:51:54;;;;;;;14.50;12.60;;;;;22.90;100822.00;;;;2068973;28;20325;-57
2022/05/18 00:53:19;;;;;;;14.43;12.98;;;;;22.90;100828.00;;;;2061684;28;20835;-57
2022/05/18 00:54:24;;;;;;;15.65;13.77;;;;;22.90;100820.00;;;;2061656;28;20218;-58
2022/05/18 00:55:24;;;;;;;16.27;14.68;;;;;22.90;100829.00;;;;2052788;28;20311;-58
2022/05/18 00:56:34;;;;;;;16.30;14.60;;;;;22.90;100831.00;;;;2056719;28;20219;-59
2022/05/18 00:57:35;;;;;;;16.23;14.02;;;;;22.90;100820.00;;;;2062937;28;20214;-58
2022/05/18 00:58:41;;;;;;;14.65;13.15;;;;;22.90;100829.00;;;;2062100;28;20214;-58
2022/05/18 00:59:53;;;;;;;15.13;13.63;;;;;22.90;100827.00;;;;2062171;28;20217;-58
2022/05/18 01:00:53;;;;;;;15.48;13.93;;;;;22.90;100837.00;;;;2062188;28;20217;-58
2022/05/18 01:01:55;;;;;;;14.17;12.67;;;;;22.90;100829.00;;;;2053376;28;20651;-57
2022/05/18 01:02:58;;;;;;;13.75;12.25;;;;;22.90;100836.00;;;;2060717;28;20309;-57
2022/05/18 01:03:59;;;;;;;14.35;12.85;;;;;22.90;100828.00;;;;2054317;28;20220;-57
2022/05/18 01:04:59;;;;;;;14.13;12.67;;;;;22.90;100837.00;;;;2045144;28;20220;-57
2022/05/18 01:06:31;;;;;;;14.40;12.90;;;;;22.90;100836.00;;;;2050952;28;20738;-57
2022/05/18 01:07:36;;;;;;;14.35;12.85;;;;;22.90;100837.00;;;;2069821;28;20730;-56
2022/05/18 01:08:38;;;;;;;13.75;12.27;;;;;22.90;100838.00;;;;2070505;28;20214;-57
2022/05/18 01:09:41;;;;;;;14.95;13.45;;;;;22.90;100837.00;;;;2068482;28;20218;-57
2022/05/18 01:10:42;;;;;;;13.65;12.35;;;;;22.90;100835.00;;;;2061008;28;20305;-57
2022/05/18 01:11:42;;;;;;;13.27;11.97;;;;;22.90;100839.00;;;;2061573;28;20227;-57
2022/05/18 01:12:42;;;;;;;13.30;11.90;;;;;22.90;100831.00;;;;2069871;28;20691;-58
2022/05/18 01:13:43;;;;;;;13.67;12.17;;;;;22.90;100839.00;;;;2069634;28;20705;-57
2022/05/18 01:14:48;;;;;;;13.10;11.30;;;;;22.90;100834.00;;;;2061556;28;20721;-57
2022/05/18 01:15:48;;;;;;;12.15;10.98;;;;;22.90;100833.00;;;;2066509;28;20214;-56
2022/05/18 01:16:49;;;;;;;12.87;11.57;;;;;22.90;100844.00;;;;2061509;28;20210;-58
2022/05/18 01:17:53;;;;;;;14.80;13.30;;;;;22.90;100837.00;;;;2069830;28;20293;-57
2022/05/18 01:18:54;;;;;;;14.02;11.70;;;;;22.90;100849.00;;;;2069325;28;20218;-58
2022/05/18 01:19:56;;;;;;;13.23;11.83;;;;;22.90;100844.00;;;;2070010;28;20203;-57
2022/05/18 01:20:56;;;;;;;13.25;11.85;;;;;22.90;100844.00;;;;2070043;28;20205;-57
2022/05/18 01:22:32;;;;;;;13.60;12.20;;;;;22.90;100850.00;;;;2069477;28;20245;-57
2022/05/18 01:23:39;;;;;;;11.85;10.65;;;;;22.90;100849.00;;;;2061491;28;20772;-57
2022/05/18 01:25:06;;;;;;;13.10;11.77;;;;;22.90;100848.00;;;;2074244;28;20229;-57
2022/05/18 01:26:24;;;;;;;13.32;11.73;;;;;22.90;100848.00;;;;2076270;28;20237;-58
2022/05/18 01:27:25;;;;;;;12.40;11.07;;;;;22.90;100854.00;;;;2075212;28;20240;-58
2022/05/18 01:28:30;;;;;;;12.50;11.30;;;;;22.90;100858.00;;;;2069169;28;20616;-57
2022/05/18 01:29:30;;;;;;;14.75;13.13;;;;;22.90;100852.00;;;;2069227;28;20399;-58
2022/05/18 01:30:31;;;;;;;11.27;10.17;;;;;22.90;100850.00;;;;2052459;28;20223;-58
2022/05/18 01:31:48;;;;;;;12.68;11.32;;;;;22.90;100854.00;;;;2051686;28;20219;-58
2022/05/18 01:32:51;;;;;;;12.13;10.98;;;;;22.90;100856.00;;;;2063169;28;20214;-58
2022/05/18 01:33:51;;;;;;;12.35;11.15;;;;;22.90;100853.00;;;;2070426;28;20253;-58
2022/05/18 01:34:51;;;;;;;11.77;10.57;;;;;22.90;100854.00;;;;2070400;28;20222;-58
2022/05/18 01:35:52;;;;;;;12.83;11.53;;;;;22.90;100857.00;;;;2068830;28;20225;-57
2022/05/18 01:36:52;;;;;;;12.00;10.70;;;;;22.90;100860.00;;;;2069537;28;20293;-58
2022/05/18 01:37:57;;;;;;;12.53;11.23;;;;;22.90;100857.00;;;;2070444;28;20262;-58
2022/05/18 01:38:57;;;;;;;11.48;10.27;;;;;22.90;100863.00;;;;2069311;28;20228;-59
2022/05/18 01:39:58;;;;;;;12.27;10.97;;;;;22.90;100853.00;;;;2054117;28;20216;-58
2022/05/18 01:41:17;;;;;;;11.80;10.37;;;;;22.90;100856.00;;;;2061471;28;20241;-58
2022/05/18 01:42:27;;;;;;;11.57;10.38;;;;;22.90;100861.00;;;;2064416;28;20587;-58
2022/05/18 01:43:38;;;;;;;12.15;10.95;;;;;22.90;100863.00;;;;2077325;28;20213;-58
2022/05/18 01:44:39;;;;;;;12.70;11.40;;;;;22.90;100858.00;;;;2069618;28;20217;-58
2022/05/18 01:45:40;;;;;;;12.30;11.10;;;;;22.90;100862.00;;;;2070245;28;20206;-58
2022/05/18 01:46:40;;;;;;;11.80;10.60;;;;;22.90;100867.00;;;;2069715;28;20229;-56
2022/05/18 01:47:40;;;;;;;12.40;11.03;;;;;22.90;100862.00;;;;2069635;28;20234;-58
2022/05/18 01:48:45;;;;;;;11.40;10.30;;;;;22.90;100860.00;;;;2077841;28;20209;-58
2022/05/18 01:49:45;;;;;;;11.30;10.20;;;;;22.90;100863.00;;;;2070250;28;20210;-59
2022/05/18 01:50:45;;;;;;;11.20;9.57;;;;;22.90;100868.00;;;;2069500;28;20207;-58
2022/05/18 01:51:48;;;;;;;11.00;10.00;;;;;22.90;100863.00;;;;2068787;28;20238;-58
2022/05/18 01:52:48;;;;;;;10.25;9.35;;;;;22.90;100874.00;;;;2069781;28;20222;-58
2022/05/18 01:53:48;;;;;;;10.33;9.23;;;;;22.90;100860.00;;;;2069380;28;20704;-57
2022/05/18 01:54:49;;;;;;;11.07;9.80;;;;;22.90;100871.00;;;;2070126;28;20682;-58
2022/05/18 01:55:49;;;;;;;9.73;8.83;;;;;22.90;100861.00;;;;2069605;28;20788;-59
2022/05/18 01:56:49;;;;;;;10.73;9.67;;;;;22.90;100819.00;;;;2070395;28;20718;-58
2022/05/18 01:57:50;;;;;;;11.27;10.20;;;;;22.90;100865.00;;;;2061651;28;20222;-58
2022/05/18 01:58:50;;;;;;;9.80;8.90;;;;;22.90;100862.00;;;;2061578;28;20240;-58
2022/05/18 01:59:51;;;;;;;10.87;9.77;;;;;22.90;100862.00;;;;2070264;28;20220;-58
2022/05/18 02:00:51;;;;;;;9.33;8.43;;;;;22.80;100856.00;;;;2070406;28;20222;-57
2022/05/18 02:01:51;;;;;;;9.57;8.57;;;;;22.90;100864.00;;;;2069634;28;20573;-57
2022/05/18 02:02:52;;;;;;;10.07;9.07;;;;;22.90;100866.00;;;;2070136;28;20240;-58
2022/05/18 02:03:53;;;;;;;9.47;8.60;;;;;22.90;100865.00;;;;2071857;28;20210;-58
2022/05/18 02:04:53;;;;;;;9.35;8.45;;;;;22.90;100859.00;;;;2070594;28;20234;-58
2022/05/18 02:05:54;;;;;;;8.43;7.63;;;;;22.90;100858.00;;;;2070237;28;20298;-58
2022/05/18 02:06:54;;;;;;;11.83;10.60;;;;;22.90;100863.00;;;;2071737;28;20277;-58
2022/05/18 02:07:57;;;;;;;11.13;9.93;;;;;22.90;100857.00;;;;2072052;28;20217;-58
2022/05/18 02:08:58;;;;;;;10.60;9.60;;;;;22.90;100861.00;;;;2079249;28;20224;-58
2022/05/18 02:09:58;;;;;;;9.55;8.60;;;;;22.90;100859.00;;;;2069049;28;20224;-58
2022/05/18 02:10:58;;;;;;;9.03;8.13;;;;;22.90;100864.00;;;;2070733;28;20920;-58
2022/05/18 02:11:59;;;;;;;9.13;8.30;;;;;22.80;100856.00;;;;2070964;28;20757;-58
2022/05/18 02:12:59;;;;;;;9.60;8.60;;;;;22.80;100861.00;;;;2068055;28;21020;-58
2022/05/18 02:14:00;;;;;;;10.87;8.97;;;;;22.80;100861.00;;;;2076729;28;20705;-57
2022/05/18 02:15:00;;;;;;;10.10;9.10;;;;;22.80;100863.00;;;;2061893;28;20251;-58
2022/05/18 02:16:04;;;;;;;9.30;8.50;;;;;22.80;100868.00;;;;2061900;28;20306;-58
2022/05/18 02:17:04;;;;;;;10.02;9.02;;;;;22.90;100835.00;;;;2071505;28;20457;-58
2022/05/18 02:18:05;;;;;;;10.50;9.50;;;;;22.90;100859.00;;;;2079142;28;20234;-57
2022/05/18 02:19:05;;;;;;;8.63;7.83;;;;;22.90;100855.00;;;;2078930;28;20217;-58
2022/05/18 02:20:06;;;;;;;10.53;8.70;;;;;22.90;100855.00;;;;2071663;28;20218;-58
2022/05/18 02:21:09;;;;;;;9.80;8.80;;;;;22.90;100858.00;;;;2079380;28;20220;-60
2022/05/18 02:22:09;;;;;;;10.63;9.63;;;;;22.90;100861.00;;;;2071055;28;20264;-56
2022/05/18 02:23:10;;;;;;;8.50;7.77;;;;;22.90;100864.00;;;;2079124;28;20217;-57
2022/05/18 02:24:10;;;;;;;9.40;8.50;;;;;22.90;100856.00;;;;2067436;28;20214;-58
2022/05/18 02:25:11;;;;;;;10.17;9.17;;;;;22.90;100865.00;;;;2062671;28;20230;-58
2022/05/18 02:26:15;;;;;;;9.00;8.10;;;;;22.90;100863.00;;;;2068651;28;20241;-58
2022/05/18 02:27:15;;;;;;;9.20;8.30;;;;;22.90;100858.00;;;;2070740;28;20221;-58
2022/05/18 02:28:16;;;;;;;9.10;8.30;;;;;22.90;100871.00;;;;2062876;28;20259;-58
2022/05/18 02:29:16;;;;;;;9.80;8.90;;;;;22.90;100865.00;;;;2062983;28;20226;-58
2022/05/18 02:30:17;;;;;;;8.57;7.57;;;;;22.90;100866.00;;;;2071723;28;20253;-57
2022/05/18 02:31:17;;;;;;;7.83;7.03;;;;;22.90;100870.00;;;;2071814;28;20214;-58
2022/05/18 02:32:17;;;;;;;9.47;8.57;;;;;22.80;100857.00;;;;2071683;28;20214;-58
2022/05/18 02:33:18;;;;;;;9.27;8.37;;;;;22.80;100860.00;;;;2070591;28;20276;-58
2022/05/18 02:34:18;;;;;;;9.20;8.30;;;;;22.90;100861.00;;;;2062740;28;20231;-57
2022/05/18 02:35:19;;;;;;;9.83;8.80;;;;;22.90;100859.00;;;;2070557;28;20218;-57
2022/05/18 02:36:19;;;;;;;8.50;7.70;;;;;22.90;100858.00;;;;2071330;28;20221;-57
2022/05/18 02:37:19;;;;;;;8.60;7.70;;;;;22.90;100858.00;;;;2070365;28;20456;-57
2022/05/18 02:38:20;;;;;;;9.17;8.30;;;;;22.90;100857.00;;;;2062609;28;20211;-57
2022/05/18 02:39:21;;;;;;;9.30;8.40;;;;;22.70;100856.00;;;;2071083;28;20502;-58
2022/05/18 02:40:21;;;;;;;8.83;8.03;;;;;22.90;100857.00;;;;2070844;28;20217;-58
2022/05/18 02:41:21;;;;;;;8.27;7.47;;;;;22.90;100864.00;;;;2069805;28;20788;-57
2022/05/18 02:42:22;;;;;;;8.50;7.70;;;;;22.90;100863.00;;;;2070731;28;20238;-57
2022/05/18 02:43:22;;;;;;;8.43;7.63;;;;;22.80;100860.00;;;;2071563;28;20232;-58
2022/05/18 02:44:22;;;;;;;9.13;8.23;;;;;22.80;100860.00;;;;2070819;28;20207;-58
2022/05/18 02:45:23;;;;;;;9.33;8.43;;;;;22.80;100849.00;;;;2061790;28;20239;-58
2022/05/18 02:46:23;;;;;;;8.37;7.57;;;;;22.80;100852.00;;;;2062639;28;20883;-57
2022/05/18 02:47:24;;;;;;;9.10;8.20;;;;;22.80;100853.00;;;;2070753;28;20214;-57
2022/05/18 02:48:24;;;;;;;8.80;8.00;;;;;22.80;100853.00;;;;2062493;28;20273;-57
2022/05/18 02:49:25;;;;;;;9.40;8.40;;;;;22.80;100852.00;;;;2071740;28;20433;-58
2022/05/18 02:50:26;;;;;;;8.00;7.22;;;;;22.80;100852.00;;;;2076314;28;20352;-57
2022/05/18 02:51:26;;;;;;;8.70;7.90;;;;;22.80;100859.00;;;;2070586;28;20325;-58
2022/05/18 02:52:26;;;;;;;8.20;7.43;;;;;22.90;100847.00;;;;2071311;28;20226;-57
2022/05/18 02:53:27;;;;;;;7.50;6.80;;;;;22.80;100852.00;;;;2075993;28;21085;-58
2022/05/18 02:57:05;;;;;;;7.00;6.30;;;;;22.80;100858.00;;;;2071303;28;20777;-57
2022/05/18 02:58:06;;;;;;;8.23;7.43;;;;;22.80;100852.00;;;;2073003;28;20214;-57
2022/05/18 02:59:07;;;;;;;7.80;7.00;;;;;22.80;100852.00;;;;2071947;28;20222;-57
2022/05/18 03:00:08;;;;;;;8.17;7.37;;;;;22.80;100853.00;;;;2069713;28;20463;-59
2022/05/18 03:01:10;;;;;;;7.80;6.90;;;;;22.90;100861.00;;;;2070363;28;20534;-57
2022/05/18 03:02:10;;;;;;;8.27;7.22;;;;;22.90;100859.00;;;;2072962;28;20324;-57
2022/05/18 03:03:12;;;;;;;7.77;6.97;;;;;22.80;100857.00;;;;2075316;28;20620;-58
2022/05/18 03:04:13;;;;;;;8.27;7.38;;;;;22.90;100857.00;;;;2060850;28;20305;-58
2022/05/18 03:05:13;;;;;;;7.20;6.50;;;;;22.80;100859.00;;;;2070611;28;20219;-57
2022/05/18 03:06:15;;;;;;;8.30;7.50;;;;;22.90;100857.00;;;;2072060;28;20214;-58
2022/05/18 03:07:15;;;;;;;7.45;6.75;;;;;22.80;100851.00;;;;2066854;28;20207;-57
2022/05/18 03:08:16;;;;;;;8.10;7.30;;;;;22.90;100859.00;;;;2062756;28;20230;-58
2022/05/18 03:09:17;;;;;;;7.60;6.77;;;;;22.90;100853.00;;;;2070734;28;20332;-59
2022/05/18 03:10:18;;;;;;;7.82;7.10;;;;;22.90;100854.00;;;;2071118;28;20254;-58
2022/05/18 03:11:19;;;;;;;6.70;6.10;;;;;22.80;100859.00;;;;2070553;28;20241;-58
2022/05/18 03:12:20;;;;;;;7.22;6.53;;;;;22.80;100858.00;;;;2066969;28;20206;-58
2022/05/18 03:13:20;;;;;;;7.63;6.83;;;;;22.80;100857.00;;;;2070484;28;20210;-58
2022/05/18 03:14:20;;;;;;;6.90;6.30;;;;;22.90;100863.00;;;;2078253;28;20237;-57
2022/05/18 03:15:21;;;;;;;7.63;6.93;;;;;22.80;100861.00;;;;2077926;28;20259;-57
2022/05/18 03:16:22;;;;;;;8.10;7.00;;;;;22.80;100864.00;;;;2071856;28;20261;-57
2022/05/18 03:17:22;;;;;;;7.85;6.57;;;;;22.80;100861.00;;;;2070118;28;20210;-57
2022/05/18 03:18:23;;;;;;;7.60;6.90;;;;;22.70;100861.00;;;;2070271;28;20210;-58
2022/05/18 03:19:23;;;;;;;7.37;6.67;;;;;22.80;100861.00;;;;2079567;28;20309;-58
2022/05/18 03:24:20;;;;;;;7.35;6.60;;;;;22.80;100866.00;;;;2074199;28;20992;-58
2022/05/18 03:25:21;;;;;;;6.67;5.97;;;;;22.80;100866.00;;;;2074654;28;20211;-58
2022/05/18 03:26:22;;;;;;;7.75;6.88;;;;;22.80;100860.00;;;;2070314;28;20228;-57
2022/05/18 03:27:23;;;;;;;6.65;5.78;;;;;22.80;100871.00;;;;2062536;28;20281;-58
2022/05/18 03:28:23;;;;;;;7.63;6.17;;;;;22.80;100869.00;;;;2062063;28;20215;-58
2022/05/18 03:29:24;;;;;;;6.43;5.70;;;;;22.80;100866.00;;;;2077508;28;20220;-58
2022/05/18 03:30:24;;;;;;;7.43;5.67;;;;;22.80;100866.00;;;;2077506;28;20241;-58
2022/05/18 03:31:25;;;;;;;7.43;6.40;;;;;22.80;100868.00;;;;2063178;28;20682;-58
2022/05/18 03:32:25;;;;;;;7.37;6.33;;;;;22.80;100864.00;;;;2070983;28;20202;-58
2022/05/18 03:33:26;;;;;;;8.17;7.03;;;;;22.80;100870.00;;;;2075043;28;20502;-57
2022/05/18 03:34:26;;;;;;;7.07;6.00;;;;;22.80;100874.00;;;;2075849;28;20299;-57
2022/05/18 03:35:27;;;;;;;7.03;6.33;;;;;22.80;100874.00;;;;2078454;28;20224;-57
2022/05/18 03:36:27;;;;;;;6.80;6.10;;;;;22.80;100868.00;;;;2078366;28;20214;-58
2022/05/18 03:37:27;;;;;;;6.10;5.50;;;;;22.80;100867.00;;;;2079006;28;20209;-58
2022/05/18 03:38:28;;;;;;;7.80;7.00;;;;;22.80;100869.00;;;;2070291;28;20222;-58
2022/05/18 03:39:28;;;;;;;7.00;6.30;;;;;22.80;100875.00;;;;2079381;28;20272;-57
2022/05/18 03:40:28;;;;;;;7.27;6.47;;;;;22.80;100873.00;;;;2079271;28;20219;-58
2022/05/18 03:41:29;;;;;;;6.37;5.77;;;;;22.80;100877.00;;;;2075619;28;20214;-58
2022/05/18 03:42:29;;;;;;;6.80;6.10;;;;;22.80;100875.00;;;;2079160;28;20301;-58
2022/05/18 03:43:29;;;;;;;6.60;6.00;;;;;22.90;100876.00;;;;2070409;28;20205;-58
2022/05/18 03:44:30;;;;;;;7.30;6.60;;;;;22.80;100879.00;;;;2078434;28;20210;-58
2022/05/18 03:45:30;;;;;;;6.80;6.10;;;;;22.80;100874.00;;;;2069577;28;20249;-58
2022/05/18 03:46:31;;;;;;;6.50;5.90;;;;;22.80;100877.00;;;;2074293;28;20218;-58
2022/05/18 03:47:31;;;;;;;6.30;5.70;;;;;22.80;100874.00;;;;2073529;28;20607;-58
2022/05/18 03:48:32;;;;;;;6.20;5.60;;;;;22.80;100879.00;;;;2070457;28;20207;-58
2022/05/18 03:49:32;;;;;;;5.80;5.30;;;;;22.80;100880.00;;;;2070458;28;20284;-58
2022/05/18 03:50:33;;;;;;;6.70;6.10;;;;;22.80;100826.00;;;;2070286;28;20206;-58
2022/05/18 03:51:33;;;;;;;6.10;5.60;;;;;22.80;100884.00;;;;2071586;28;20737;-58
2022/05/18 03:52:34;;;;;;;6.50;5.80;;;;;22.80;100881.00;;;;2078789;28;21564;-58
2022/05/18 03:53:34;;;;;;;7.03;6.33;;;;;22.80;100881.00;;;;2077538;28;20318;-57
2022/05/18 03:54:35;;;;;;;7.20;6.50;;;;;22.80;100820.00;;;;2060456;28;20223;-57
2022/05/18 03:55:36;;;;;;;5.67;5.10;;;;;22.80;100885.00;;;;2077723;28;20311;-58
2022/05/18 03:56:37;;;;;;;5.95;5.35;;;;;22.80;100879.00;;;;2064355;28;20215;-57
2022/05/18 03:57:37;;;;;;;5.43;4.93;;;;;22.80;100886.00;;;;2060999;28;20632;-58
2022/05/18 03:58:37;;;;;;;6.10;5.50;;;;;22.80;100889.00;;;;2071135;28;20740;-58
2022/05/18 03:59:39;;;;;;;6.43;5.83;;;;;22.80;100883.00;;;;2078300;28;20543;-58
2022/05/18 04:00:42;;;;;;;5.63;5.13;;;;;22.80;100882.00;;;;2072707;28;20214;-58
2022/05/18 04:01:43;;;;;;;5.55;5.05;;;;;22.80;100886.00;;;;2078843;28;20579;-58
2022/05/18 04:02:43;;;;;;;6.90;6.17;;;;;22.80;100877.00;;;;2071458;28;20245;-59
2022/05/18 04:03:45;;;;;;;6.73;6.10;;;;;22.80;100886.00;;;;2070453;28;20218;-58
2022/05/18 04:04:45;;;;;;;6.68;6.07;;;;;22.80;100886.00;;;;2070318;28;20256;-58
2022/05/18 04:05:48;;;;;;;5.77;5.23;;;;;22.80;100882.00;;;;2070178;28;20637;-58
2022/05/18 04:06:48;;;;;;;6.65;6.05;;;;;22.80;100885.00;;;;2061869;28;20218;-58
2022/05/18 04:07:49;;;;;;;7.80;5.73;;;;;22.80;100885.00;;;;2067239;28;20198;-58
2022/05/18 04:08:49;;;;;;;5.70;5.10;;;;;22.80;100894.00;;;;2075785;28;20311;-58
2022/05/18 04:09:50;;;;;;;6.13;5.53;;;;;22.80;100894.00;;;;2062098;28;20207;-59
2022/05/18 04:10:50;;;;;;;6.70;6.00;;;;;22.80;100890.00;;;;2070215;28;20210;-57
2022/05/18 04:11:50;;;;;;;5.97;5.47;;;;;22.80;100882.00;;;;2070824;28;20289;-58
2022/05/18 04:12:51;;;;;;;5.63;5.10;;;;;22.80;100891.00;;;;2070134;28;20253;-58
2022/05/18 04:13:51;;;;;;;5.73;5.23;;;;;22.80;100893.00;;;;2070117;28;20202;-58
2022/05/18 04:14:54;;;;;;;6.33;5.73;;;;;22.80;100894.00;;;;2070024;28;20245;-58
2022/05/18 04:15:54;;;;;;;6.60;6.00;;;;;22.80;100896.00;;;;2060663;28;20249;-59
2022/05/18 04:16:54;;;;;;;5.27;4.77;;;;;22.80;100894.00;;;;2056336;28;20302;-58
2022/05/18 04:17:55;;;;;;;5.27;4.77;;;;;22.80;100893.00;;;;2069888;28;20216;-58
2022/05/18 04:18:55;;;;;;;5.70;5.20;;;;;22.80;100898.00;;;;2078893;28;20210;-58
2022/05/18 04:19:56;;;;;;;5.50;5.00;;;;;22.80;100905.00;;;;2079027;28;20213;-58
2022/05/18 04:20:56;;;;;;;5.50;5.00;;;;;22.80;100903.00;;;;2070173;28;20214;-57
2022/05/18 04:21:56;;;;;;;5.17;4.70;;;;;22.80;100902.00;;;;2070097;28;20225;-58
2022/05/18 04:22:57;;;;;;;5.13;4.63;;;;;22.80;100902.00;;;;2078104;28;20301;-58
2022/05/18 04:23:57;;;;;;;5.60;5.10;;;;;22.80;100902.00;;;;2078965;28;20214;-58
2022/05/18 04:25:01;;;;;;;5.73;5.20;;;;;22.80;100898.00;;;;2078973;28;20218;-58
2022/05/18 04:26:01;;;;;;;5.57;5.03;;;;;22.80;100906.00;;;;2077301;28;20263;-58
2022/05/18 04:27:02;;;;;;;5.67;5.17;;;;;22.80;100890.00;;;;2078017;28;20693;-58
2022/05/18 04:28:03;;;;;;;5.03;4.60;;;;;22.70;100902.00;;;;2078233;28;20575;-58
2022/05/18 04:29:03;;;;;;;5.90;5.27;;;;;22.80;100907.00;;;;2078304;28;20214;-58
2022/05/18 04:30:04;;;;;;;5.03;4.53;;;;;22.80;100910.00;;;;2074674;28;20300;-58
2022/05/18 04:31:05;;;;;;;4.90;4.50;;;;;22.80;100912.00;;;;2070636;28;20215;-58
2022/05/18 04:32:05;;;;;;;4.70;4.30;;;;;22.80;100906.00;;;;2069929;28;20253;-58
2022/05/18 04:33:06;;;;;;;5.37;4.87;;;;;22.80;100902.00;;;;2060201;28;20229;-58
2022/05/18 04:34:06;;;;;;;5.50;5.00;;;;;22.80;100912.00;;;;2069977;28;20687;-58
2022/05/18 04:35:08;;;;;;;5.47;4.97;;;;;22.80;100911.00;;;;2070729;28;20587;-58
2022/05/18 04:36:08;;;;;;;5.40;4.90;;;;;22.80;100909.00;;;;2068924;28;20245;-59
2022/05/18 04:37:09;;;;;;;5.30;4.80;;;;;22.90;100912.00;;;;2060982;28;20218;-58
2022/05/18 04:38:09;;;;;;;5.10;4.60;;;;;22.90;100921.00;;;;2069036;28;20276;-59
2022/05/18 04:39:09;;;;;;;5.10;4.70;;;;;22.90;100908.00;;;;2069184;28;20594;-58
2022/05/18 04:40:10;;;;;;;14.50;4.50;;;;;22.80;100917.00;;;;2069241;28;20609;-57
2022/05/18 04:41:11;;;;;;;8.70;4.97;;;;;22.80;100911.00;;;;2061152;28;20313;-56
2022/05/18 04:42:12;;;;;;;6.32;5.72;;;;;22.80;100909.00;;;;2069395;28;21821;-58
2022/05/18 04:43:12;;;;;;;7.40;6.17;;;;;22.80;100907.00;;;;2061401;28;20419;-58
2022/05/18 04:44:13;;;;;;;6.13;5.43;;;;;22.90;100914.00;;;;2061656;28;20291;-58
2022/05/18 04:45:15;;;;;;;10.47;6.00;;;;;22.90;100912.00;;;;2069710;28;20210;-57
2022/05/18 04:46:15;;;;;;;6.15;5.55;;;;;22.90;100917.00;;;;2068905;28;20214;-57
2022/05/18 04:47:15;;;;;;;7.80;6.10;;;;;22.90;100922.00;;;;2069398;28;20250;-57
2022/05/18 04:48:17;;;;;;;6.63;5.53;;;;;22.90;100918.00;;;;2069862;28;20214;-57
2022/05/18 04:49:17;;;;;;;8.23;6.00;;;;;22.90;100920.00;;;;2069933;28;20218;-58
2022/05/18 04:50:19;;;;;;;12.20;5.20;;;;;22.90;100920.00;;;;2068754;28;20756;-58
2022/05/18 04:51:19;;;;;;;9.30;5.82;;;;;22.90;100922.00;;;;2069732;28;20788;-57
2022/05/18 04:52:20;;;;;;;6.80;6.10;;;;;22.90;100924.00;;;;2069696;28;20237;-57
2022/05/18 04:53:21;;;;;;;6.90;5.55;;;;;22.90;100923.00;;;;2060397;28;20742;-57
2022/05/18 04:54:22;;;;;;;9.10;6.07;;;;;22.90;100916.00;;;;2069503;28;20333;-56
2022/05/18 04:55:22;;;;;;;7.60;5.47;;;;;22.90;100918.00;;;;2069703;28;20269;-56
2022/05/18 04:56:24;;;;;;;8.13;6.00;;;;;23.00;100923.00;;;;2069298;28;20214;-57
2022/05/18 04:57:25;;;;;;;8.63;5.80;;;;;23.00;100936.00;;;;2069469;28;20221;-58
2022/05/18 04:58:25;;;;;;;10.57;5.83;;;;;22.90;100936.00;;;;2069888;28;20222;-58
2022/05/18 04:59:25;;;;;;;6.27;5.63;;;;;22.90;100927.00;;;;2070232;28;20225;-57
2022/05/18 05:00:26;;;;;;;6.53;5.10;;;;;22.90;100927.00;;;;2069966;28;20305;-57
2022/05/18 05:01:26;;;;;;;5.37;4.80;;;;;22.90;100927.00;;;;2069747;28;20253;-57
2022/05/18 05:02:27;;;;;;;10.90;4.77;;;;;22.80;100930.00;;;;2070420;28;20583;-58
2022/05/18 05:03:28;;;;;;;7.05;4.95;;;;;22.80;100931.00;;;;2061421;28;20223;-57
2022/05/18 05:04:28;;;;;;;6.30;4.97;;;;;22.80;100931.00;;;;2061403;28;20238;-57
2022/05/18 05:05:29;;;;;;;5.80;4.80;;;;;22.80;100942.00;;;;2069817;28;20268;-57
2022/05/18 05:06:31;;;;;;;6.80;5.13;;;;;22.90;100944.00;;;;2076208;28;20220;-57
2022/05/18 05:07:31;;;;;;;5.43;4.75;;;;;22.90;100944.00;;;;2077407;28;20296;-57
2022/05/18 05:08:34;;;;;;;5.80;5.20;;;;;22.80;100946.00;;;;2077756;28;20224;-56